createdAt,value
2017-09-05T00:02:22.711Z,9.00
2017-09-05T00:04:50.342Z,9.30
2017-09-05T00:07:17.966Z,14.13
2017-09-05T00:09:46.510Z,15.87
2017-09-05T00:12:17.674Z,14.67
2017-09-05T00:14:50.292Z,19.27
2017-09-05T00:17:17.963Z,19.80
2017-09-05T00:19:48.121Z,19.20
2017-09-05T00:22:16.545Z,19.27
2017-09-05T00:24:44.186Z,19.40
2017-09-05T00:27:11.882Z,20.13
2017-09-05T00:29:39.499Z,23.23
2017-09-05T00:32:07.095Z,18.60
2017-09-05T00:34:34.756Z,28.43
2017-09-05T00:37:02.402Z,20.87
2017-09-05T00:39:30.033Z,24.40
2017-09-05T00:41:57.695Z,20.27
2017-09-05T00:44:25.335Z,25.93
2017-09-05T00:46:52.951Z,25.10
2017-09-05T00:49:20.583Z,20.43
2017-09-05T00:51:48.328Z,21.23
2017-09-05T00:54:16.030Z,21.20
2017-09-05T00:56:43.662Z,24.47
2017-09-05T00:59:11.872Z,24.10
2017-09-05T01:01:39.539Z,27.63
2017-09-05T01:04:07.163Z,23.90
2017-09-05T01:06:34.881Z,27.53
2017-09-05T01:09:02.523Z,27.63
2017-09-05T01:11:30.202Z,30.13
2017-09-05T01:13:57.888Z,29.60
2017-09-05T01:16:25.506Z,43.43
2017-09-05T01:18:53.113Z,30.23
2017-09-05T01:21:20.867Z,29.70
2017-09-05T01:23:48.586Z,24.60
2017-09-05T01:26:16.247Z,30.17
2017-09-05T01:28:43.876Z,35.37
2017-09-05T01:31:11.514Z,29.70
2017-09-05T01:33:39.148Z,32.03
2017-09-05T01:36:06.775Z,28.43
2017-09-05T01:38:34.445Z,29.40
2017-09-05T01:41:02.129Z,27.97
2017-09-05T01:43:29.758Z,29.20
2017-09-05T01:45:57.360Z,34.20
2017-09-05T01:48:24.988Z,34.23
2017-09-05T01:50:52.588Z,32.87
2017-09-05T01:53:20.204Z,26.03
2017-09-05T01:55:47.855Z,32.00
2017-09-05T01:58:15.889Z,33.17
2017-09-05T02:00:43.499Z,30.40
2017-09-05T02:03:11.921Z,30.60
2017-09-05T02:05:39.538Z,36.73
2017-09-05T02:08:07.157Z,27.60
2017-09-05T02:10:34.785Z,31.70
2017-09-05T02:13:02.431Z,31.97
2017-09-05T02:15:30.016Z,35.33
2017-09-05T02:17:57.650Z,30.43
2017-09-05T02:20:25.368Z,29.23
2017-09-05T02:22:52.986Z,29.67
2017-09-05T02:25:20.610Z,29.73
2017-09-05T02:27:48.222Z,27.27
2017-09-05T02:30:15.858Z,29.47
2017-09-05T02:32:43.475Z,34.27
2017-09-05T02:35:11.161Z,34.50
2017-09-05T02:37:38.845Z,33.90
2017-09-05T02:40:06.520Z,33.67
2017-09-05T02:42:34.141Z,31.80
2017-09-05T02:45:01.752Z,31.80
2017-09-05T02:47:29.375Z,34.60
2017-09-05T02:49:56.994Z,34.17
2017-09-05T02:52:24.612Z,32.90
2017-09-05T02:54:52.212Z,31.57
2017-09-05T02:57:19.824Z,31.40
2017-09-05T02:59:47.471Z,28.40
2017-09-05T03:02:15.126Z,25.97
2017-09-05T03:04:42.723Z,26.27
2017-09-05T03:07:10.402Z,25.17
2017-09-05T03:09:38.007Z,32.40
2017-09-05T03:12:05.624Z,23.93
2017-09-05T03:14:33.233Z,28.63
2017-09-05T03:17:00.871Z,28.63
2017-09-05T03:19:28.467Z,28.30
2017-09-05T03:21:56.094Z,29.23
2017-09-05T03:24:23.896Z,27.27
2017-09-05T03:26:51.749Z,23.30
2017-09-05T03:29:19.406Z,29.00
2017-09-05T03:31:47.014Z,29.20
2017-09-05T03:34:14.655Z,29.73
2017-09-05T03:36:42.296Z,21.53
2017-09-05T03:39:09.925Z,27.07
2017-09-05T03:41:37.583Z,27.30
2017-09-05T03:44:05.864Z,27.70
2017-09-05T03:46:33.477Z,30.03
2017-09-05T03:49:01.098Z,26.63
2017-09-05T03:51:28.723Z,27.77
2017-09-05T03:53:56.322Z,22.23
2017-09-05T03:56:24.241Z,26.17
2017-09-05T03:58:51.845Z,24.20
2017-09-05T04:01:19.481Z,22.37
2017-09-05T04:03:47.182Z,29.40
2017-09-05T04:06:14.830Z,19.67
2017-09-05T04:08:42.494Z,25.30
2017-09-05T04:11:10.151Z,22.00
2017-09-05T04:13:37.813Z,22.17
2017-09-05T04:16:05.436Z,25.83
2017-09-05T04:18:33.065Z,25.13
2017-09-05T04:21:00.718Z,30.83
2017-09-05T04:23:28.355Z,21.70
2017-09-05T04:25:55.986Z,24.17
2017-09-05T04:28:23.691Z,22.67
2017-09-05T04:30:51.315Z,24.40
2017-09-05T04:33:18.944Z,25.63
2017-09-05T04:35:46.607Z,25.30
2017-09-05T04:38:15.047Z,28.20
2017-09-05T04:40:42.682Z,24.87
2017-09-05T04:43:10.319Z,29.07
2017-09-05T04:45:37.941Z,24.10
2017-09-05T04:48:05.537Z,26.70
2017-09-05T04:50:33.167Z,19.73
2017-09-05T04:53:00.778Z,25.53
2017-09-05T04:55:28.429Z,22.27
2017-09-05T04:57:56.086Z,19.10
2017-09-05T05:00:23.816Z,21.00
2017-09-05T05:02:51.473Z,24.23
2017-09-05T05:05:19.091Z,21.37
2017-09-05T05:07:46.760Z,20.37
2017-09-05T05:10:14.459Z,23.13
2017-09-05T05:12:42.126Z,21.40
2017-09-05T05:15:09.741Z,23.60
2017-09-05T05:17:37.435Z,22.57
2017-09-05T05:20:05.037Z,20.93
2017-09-05T05:22:32.666Z,27.00
2017-09-05T05:25:00.305Z,23.93
2017-09-05T05:27:27.910Z,21.10
2017-09-05T05:29:55.517Z,22.17
2017-09-05T05:32:23.198Z,19.70
2017-09-05T05:34:50.843Z,24.37
2017-09-05T05:37:18.460Z,21.83
2017-09-05T05:39:46.109Z,20.70
2017-09-05T05:42:13.729Z,22.27
2017-09-05T05:44:41.369Z,21.40
2017-09-05T05:47:09.279Z,21.63
2017-09-05T05:49:36.927Z,21.37
2017-09-05T05:52:04.543Z,21.97
2017-09-05T05:54:32.141Z,22.43
2017-09-05T05:56:59.803Z,22.03
2017-09-05T05:59:28.328Z,20.83
2017-09-05T06:01:56.041Z,23.43
2017-09-05T06:04:23.886Z,22.40
2017-09-05T06:06:51.520Z,18.80
2017-09-05T06:09:19.142Z,20.23
2017-09-05T06:11:46.839Z,20.87
2017-09-05T06:14:14.461Z,22.37
2017-09-05T06:16:42.076Z,23.43
2017-09-05T06:19:09.711Z,16.97
2017-09-05T06:21:37.350Z,19.47
2017-09-05T06:24:04.976Z,20.10
2017-09-05T06:26:33.521Z,19.07
2017-09-05T06:29:01.261Z,21.20
2017-09-05T06:31:28.861Z,20.33
2017-09-05T06:33:56.466Z,19.87
2017-09-05T06:36:24.081Z,20.03
2017-09-05T06:38:51.693Z,18.27
2017-09-05T06:41:19.321Z,23.60
2017-09-05T06:43:46.978Z,18.37
2017-09-05T06:46:14.678Z,19.50
2017-09-05T06:48:42.268Z,18.90
2017-09-05T06:51:09.915Z,19.43
2017-09-05T06:53:37.607Z,22.90
2017-09-05T06:56:05.251Z,18.63
2017-09-05T06:58:32.896Z,19.30
2017-09-05T07:01:00.506Z,17.73
2017-09-05T07:03:28.120Z,15.40
2017-09-05T07:05:55.750Z,17.33
2017-09-05T07:08:23.468Z,16.73
2017-09-05T07:10:51.094Z,19.33
2017-09-05T07:13:18.709Z,17.53
2017-09-05T07:15:46.385Z,18.50
2017-09-05T07:18:14.005Z,15.00
2017-09-05T07:20:41.650Z,18.70
2017-09-05T07:23:09.278Z,16.30
2017-09-05T07:25:36.885Z,19.10
2017-09-05T07:28:04.506Z,17.47
2017-09-05T07:30:32.686Z,13.10
2017-09-05T07:33:00.310Z,16.57
2017-09-05T07:35:27.926Z,14.90
2017-09-05T07:37:55.542Z,13.30
2017-09-05T07:40:23.143Z,11.97
2017-09-05T07:42:50.795Z,13.93
2017-09-05T07:45:18.402Z,15.37
2017-09-05T07:47:46.045Z,12.90
2017-09-05T07:50:13.645Z,11.10
2017-09-05T07:52:41.264Z,11.67
2017-09-05T07:55:08.886Z,13.13
2017-09-05T07:57:36.493Z,11.30
2017-09-05T08:00:04.123Z,12.53
2017-09-05T08:02:31.762Z,12.70
2017-09-05T08:04:59.378Z,10.97
2017-09-05T08:07:27.006Z,11.20
2017-09-05T08:09:54.620Z,9.83
2017-09-05T08:12:22.249Z,11.50
2017-09-05T08:14:49.866Z,11.63
2017-09-05T08:17:17.520Z,8.97
2017-09-05T08:19:45.129Z,9.60
2017-09-05T08:22:12.752Z,11.40
2017-09-05T08:24:40.394Z,8.30
2017-09-05T08:27:08.003Z,12.07
2017-09-05T08:29:35.596Z,9.70
2017-09-05T08:32:03.283Z,10.47
2017-09-05T08:34:30.923Z,11.60
2017-09-05T08:36:58.523Z,9.57
2017-09-05T08:39:26.227Z,10.30
2017-09-05T08:41:53.846Z,8.40
2017-09-05T08:44:21.440Z,10.10
2017-09-05T08:46:49.047Z,8.30
2017-09-05T08:49:16.702Z,10.70
2017-09-05T08:51:44.316Z,12.20
2017-09-05T08:54:11.958Z,11.57
2017-09-05T08:56:39.868Z,10.33
2017-09-05T08:59:07.475Z,9.90
2017-09-05T09:01:35.099Z,9.47
2017-09-05T09:04:02.757Z,8.33
2017-09-05T09:06:30.375Z,10.57
2017-09-05T09:08:57.965Z,13.93
2017-09-05T09:11:25.567Z,7.60
2017-09-05T09:13:53.163Z,8.43
2017-09-05T09:16:20.768Z,9.50
2017-09-05T09:18:48.452Z,7.10
2017-09-05T09:21:16.058Z,13.03
2017-09-05T09:29:25.314Z,13.20
2017-09-05T09:31:52.916Z,9.27
2017-09-05T09:34:21.128Z,11.17
2017-09-05T09:36:48.763Z,7.83
2017-09-05T09:39:16.390Z,14.63
2017-09-05T09:41:44.002Z,7.47
2017-09-05T09:44:11.589Z,9.17
2017-09-05T09:46:39.300Z,11.43
2017-09-05T09:49:06.978Z,7.80
2017-09-05T09:51:34.647Z,12.63
2017-09-05T09:54:02.251Z,8.00
2017-09-05T09:56:29.895Z,9.53
2017-09-05T09:58:57.476Z,10.03
2017-09-05T10:01:25.063Z,9.80
2017-09-05T10:03:52.688Z,10.00
2017-09-05T10:06:20.279Z,10.30
2017-09-05T10:08:47.918Z,10.13
2017-09-05T10:11:15.555Z,7.37
2017-09-05T10:13:43.157Z,7.40
2017-09-05T10:16:10.750Z,5.23
2017-09-05T10:18:38.369Z,9.40
2017-09-05T10:21:05.980Z,5.10
2017-09-05T10:23:33.642Z,5.53
2017-09-05T10:26:01.229Z,4.50
2017-09-05T10:28:28.857Z,5.17
2017-09-05T10:30:56.452Z,5.00
2017-09-05T10:33:24.075Z,5.23
2017-09-05T10:35:51.954Z,7.23
2017-09-05T10:38:19.546Z,6.30
2017-09-05T10:40:47.168Z,8.10
2017-09-05T10:43:15.296Z,7.60
2017-09-05T10:45:42.932Z,5.27
2017-09-05T10:48:10.512Z,6.27
2017-09-05T10:50:38.142Z,7.90
2017-09-05T10:53:05.830Z,4.60
2017-09-05T10:55:33.481Z,3.30
2017-09-05T10:58:01.159Z,7.73
2017-09-05T11:00:28.807Z,4.40
2017-09-05T11:02:56.442Z,4.10
2017-09-05T11:05:24.111Z,3.27
2017-09-05T11:07:51.776Z,5.13
2017-09-05T11:10:19.376Z,5.20
2017-09-05T11:12:46.969Z,4.10
2017-09-05T11:15:14.586Z,4.20
2017-09-05T11:17:42.196Z,3.90
2017-09-05T11:20:09.788Z,7.50
2017-09-05T11:22:37.402Z,9.20
2017-09-05T11:25:05.034Z,3.80
2017-09-05T11:27:32.636Z,5.03
2017-09-05T11:30:00.296Z,3.80
2017-09-05T11:32:27.898Z,4.83
2017-09-05T11:34:55.492Z,5.10
2017-09-05T11:37:23.362Z,7.13
2017-09-05T11:39:51.000Z,6.13
2017-09-05T11:42:18.617Z,3.07
2017-09-05T11:44:46.222Z,3.93
2017-09-05T11:47:13.811Z,3.00
2017-09-05T11:49:41.449Z,5.67
2017-09-05T11:52:10.055Z,4.27
2017-09-05T11:54:39.200Z,7.53
2017-09-05T11:57:06.836Z,6.77
2017-09-05T11:59:34.478Z,4.87
2017-09-05T12:02:02.166Z,4.70
2017-09-05T12:04:29.836Z,5.30
2017-09-05T12:06:57.430Z,7.20
2017-09-05T12:09:25.036Z,4.70
2017-09-05T12:11:52.645Z,5.40
2017-09-05T12:14:20.246Z,3.93
2017-09-05T12:16:47.856Z,4.47
2017-09-05T12:19:15.449Z,5.67
2017-09-05T12:21:43.054Z,4.30
2017-09-05T12:24:10.688Z,7.87
2017-09-05T12:26:38.335Z,5.33
2017-09-05T12:29:06.155Z,6.50
2017-09-05T12:31:33.825Z,8.80
2017-09-05T12:34:01.429Z,6.70
2017-09-05T12:36:29.077Z,8.73
2017-09-05T12:38:57.636Z,3.90
2017-09-05T12:41:25.275Z,5.20
2017-09-05T12:43:52.952Z,9.67
2017-09-05T12:46:20.551Z,4.70
2017-09-05T12:48:48.712Z,5.77
2017-09-05T12:51:18.153Z,6.80
2017-09-05T12:53:45.768Z,6.23
2017-09-05T12:56:13.429Z,6.03
2017-09-05T12:58:41.065Z,6.20
2017-09-05T13:01:08.786Z,5.90
2017-09-05T13:03:36.406Z,5.93
2017-09-05T13:06:04.023Z,5.13
2017-09-05T13:08:31.629Z,7.13
2017-09-05T13:10:59.239Z,4.93
2017-09-05T13:13:26.825Z,7.00
2017-09-05T13:15:54.441Z,6.43
2017-09-05T13:18:22.073Z,10.70
2017-09-05T13:20:49.686Z,6.67
2017-09-05T13:23:17.305Z,10.43
2017-09-05T13:25:44.919Z,10.20
2017-09-05T13:28:12.522Z,7.90
2017-09-05T13:30:40.135Z,11.20
2017-09-05T13:33:07.732Z,7.90
2017-09-05T13:35:35.360Z,6.97
2017-09-05T13:38:02.959Z,11.00
2017-09-05T13:40:30.594Z,7.37
2017-09-05T13:42:58.181Z,4.73
2017-09-05T13:45:25.816Z,8.33
2017-09-05T13:47:53.449Z,5.23
2017-09-05T13:50:21.059Z,5.20
2017-09-05T13:52:48.692Z,8.33
2017-09-05T13:55:16.607Z,8.27
2017-09-05T13:57:44.232Z,9.53
2017-09-05T14:00:11.835Z,7.73
2017-09-05T14:02:39.448Z,7.30
2017-09-05T14:05:07.113Z,7.47
2017-09-05T14:07:34.741Z,6.00
2017-09-05T14:10:02.378Z,6.40
2017-09-05T14:12:30.021Z,10.73
2017-09-05T14:14:57.696Z,6.17
2017-09-05T14:17:25.279Z,7.87
2017-09-05T14:19:52.916Z,8.53
2017-09-05T14:22:20.513Z,8.03
2017-09-05T14:24:48.136Z,5.10
2017-09-05T14:27:15.742Z,8.27
2017-09-05T14:29:43.402Z,5.80
2017-09-05T14:32:11.009Z,7.00
2017-09-05T14:34:38.622Z,8.20
2017-09-05T14:37:06.265Z,8.90
2017-09-05T14:39:33.894Z,11.07
2017-09-05T14:42:01.510Z,7.23
2017-09-05T14:44:29.122Z,5.50
2017-09-05T14:46:56.720Z,7.97
2017-09-05T14:49:24.324Z,6.10
2017-09-05T14:51:53.910Z,7.53
2017-09-05T14:54:21.519Z,6.83
2017-09-05T14:56:49.170Z,6.57
2017-09-05T14:59:16.823Z,8.57
2017-09-05T15:01:44.433Z,4.60
2017-09-05T15:04:12.075Z,10.00
2017-09-05T15:06:39.725Z,6.20
2017-09-05T15:09:07.332Z,6.10
2017-09-05T15:11:34.950Z,6.20
2017-09-05T15:14:02.554Z,5.00
2017-09-05T15:16:30.207Z,5.20
2017-09-05T15:18:57.831Z,8.40
2017-09-05T15:21:25.443Z,5.10
2017-09-05T15:23:53.195Z,5.60
2017-09-05T15:26:20.809Z,7.60
2017-09-05T15:28:48.475Z,7.83
2017-09-05T15:31:16.085Z,3.80
2017-09-05T15:33:43.668Z,6.70
2017-09-05T15:36:11.270Z,5.57
2017-09-05T15:38:39.319Z,5.13
2017-09-05T15:41:07.896Z,5.83
2017-09-05T15:43:35.496Z,10.37
2017-09-05T15:46:04.101Z,7.33
2017-09-05T15:48:31.698Z,7.37
2017-09-05T15:50:59.356Z,5.70
2017-09-05T15:53:26.976Z,4.20
2017-09-05T15:55:54.556Z,3.70
2017-09-05T15:58:22.168Z,5.80
2017-09-05T16:00:49.822Z,3.60
2017-09-05T16:03:17.484Z,4.50
2017-09-05T16:05:45.109Z,4.53
2017-09-05T16:08:14.549Z,4.83
2017-09-05T16:10:42.209Z,8.17
2017-09-05T16:13:09.851Z,3.93
2017-09-05T16:15:37.501Z,9.50
2017-09-05T16:18:05.098Z,7.60
2017-09-05T16:20:32.721Z,5.70
2017-09-05T16:23:00.332Z,4.73
2017-09-05T16:25:28.343Z,5.10
2017-09-05T16:27:55.980Z,5.03
2017-09-05T16:30:23.778Z,7.90
2017-09-05T16:32:51.371Z,7.23
2017-09-05T16:35:19.017Z,5.53
2017-09-05T16:37:46.647Z,4.40
2017-09-05T16:40:14.249Z,5.33
2017-09-05T16:42:41.900Z,5.43
2017-09-05T16:45:10.440Z,4.73
2017-09-05T16:47:38.062Z,3.90
2017-09-05T16:50:05.673Z,7.93
2017-09-05T16:52:34.166Z,6.80
2017-09-05T16:55:01.752Z,7.30
2017-09-05T16:57:30.144Z,4.30
2017-09-05T16:59:57.767Z,7.17
2017-09-05T17:02:25.415Z,6.97
2017-09-05T17:04:53.016Z,8.80
2017-09-05T17:07:20.643Z,10.17
2017-09-05T17:09:48.275Z,6.90
2017-09-05T17:12:15.908Z,11.07
2017-09-05T17:14:43.550Z,9.13
2017-09-05T17:17:11.172Z,5.13
2017-09-05T17:19:38.764Z,9.90
2017-09-05T17:22:06.417Z,7.90
2017-09-05T17:24:35.976Z,7.53
2017-09-05T17:27:03.582Z,6.53
2017-09-05T17:29:31.191Z,6.07
2017-09-05T17:31:58.801Z,7.77
2017-09-05T17:34:26.436Z,14.63
2017-09-05T17:36:54.056Z,9.30
2017-09-05T17:39:21.740Z,9.40
2017-09-05T17:41:49.408Z,9.70
2017-09-05T17:44:17.047Z,8.90
2017-09-05T17:46:44.688Z,8.40
2017-09-05T17:49:12.315Z,10.13
2017-09-05T17:51:39.932Z,8.63
2017-09-05T17:54:07.649Z,10.10
2017-09-05T17:56:35.324Z,11.03
2017-09-05T17:59:02.935Z,10.37
2017-09-05T18:01:30.889Z,15.80
2017-09-05T18:03:58.552Z,10.30
2017-09-05T18:06:26.191Z,13.50
2017-09-05T18:08:53.828Z,12.47
2017-09-05T18:11:21.494Z,10.77
2017-09-05T18:13:49.770Z,8.30
2017-09-05T18:16:17.375Z,12.17
2017-09-05T18:18:44.993Z,11.57
2017-09-05T18:21:12.663Z,12.37
2017-09-05T18:23:40.277Z,9.87
2017-09-05T18:26:07.906Z,11.07
2017-09-05T18:28:35.537Z,9.67
2017-09-05T18:31:03.144Z,10.67
2017-09-05T18:33:30.782Z,9.70
2017-09-05T18:35:58.412Z,9.83
2017-09-05T18:38:26.057Z,10.97
2017-09-05T18:40:54.078Z,8.67
2017-09-05T18:43:21.670Z,12.80
2017-09-05T18:45:49.310Z,14.33
2017-09-05T18:48:16.937Z,9.30
2017-09-05T18:50:44.568Z,14.03
2017-09-05T18:53:12.740Z,13.30
2017-09-05T18:55:40.372Z,14.00
2017-09-05T18:58:08.128Z,10.10
2017-09-05T19:00:35.737Z,10.53
2017-09-05T19:03:03.463Z,9.10
2017-09-05T19:05:31.118Z,8.93
2017-09-05T19:07:58.727Z,9.83
2017-09-05T19:10:26.381Z,10.97
2017-09-05T19:12:53.993Z,9.90
2017-09-05T19:15:21.609Z,9.60
2017-09-05T19:17:49.229Z,8.97
2017-09-05T19:20:16.861Z,10.17
2017-09-05T19:22:44.474Z,16.67
2017-09-05T19:25:12.107Z,14.90
2017-09-05T19:27:39.786Z,9.13
2017-09-05T19:30:07.399Z,8.33
2017-09-05T19:32:34.995Z,9.47
2017-09-05T19:35:02.751Z,10.50
2017-09-05T19:37:30.620Z,11.20
2017-09-05T19:39:58.258Z,11.03
2017-09-05T19:42:25.903Z,10.60
2017-09-05T19:44:53.600Z,12.97
2017-09-05T19:47:21.200Z,11.50
2017-09-05T19:49:48.814Z,10.13
2017-09-05T19:52:16.477Z,12.70
2017-09-05T19:54:44.083Z,12.93
2017-09-05T19:57:11.705Z,10.63
2017-09-05T19:59:39.397Z,10.90
2017-09-05T20:02:07.047Z,10.97
2017-09-05T20:04:34.683Z,9.40
2017-09-05T20:07:02.328Z,11.67
2017-09-05T20:09:29.946Z,9.80
2017-09-05T20:11:57.623Z,15.27
2017-09-05T20:14:25.264Z,10.30
2017-09-05T20:16:52.868Z,11.97
2017-09-05T20:19:20.473Z,10.53
2017-09-05T20:21:48.096Z,9.70
2017-09-05T20:24:15.706Z,9.03
2017-09-05T20:26:43.425Z,8.77
2017-09-05T20:29:11.053Z,11.00
2017-09-05T20:31:38.782Z,13.90
2017-09-05T20:34:06.432Z,10.70
2017-09-05T20:36:34.057Z,11.70
2017-09-05T20:39:01.691Z,8.13
2017-09-05T20:41:29.367Z,12.10
2017-09-05T20:43:57.009Z,12.70
2017-09-05T20:46:24.630Z,15.43
2017-09-05T20:48:52.323Z,11.37
2017-09-05T20:51:21.114Z,9.20
2017-09-05T20:53:49.094Z,9.70
2017-09-05T20:56:16.716Z,11.90
2017-09-05T20:58:44.334Z,12.17
2017-09-05T21:01:11.962Z,13.63
2017-09-05T21:03:39.590Z,15.70
2017-09-05T21:06:07.212Z,18.13
2017-09-05T21:08:34.932Z,17.00
2017-09-05T21:11:02.609Z,17.13
2017-09-05T21:13:30.241Z,16.60
2017-09-05T21:15:57.903Z,13.43
2017-09-05T21:18:25.521Z,13.40
2017-09-05T21:20:53.124Z,12.60
2017-09-05T21:23:20.798Z,16.53
2017-09-05T21:25:48.399Z,14.43
2017-09-05T21:28:16.075Z,17.83
2017-09-05T21:30:43.719Z,13.10
2017-09-05T21:33:11.361Z,13.67
2017-09-05T21:35:38.975Z,17.93
2017-09-05T21:38:06.590Z,13.63
2017-09-05T21:40:34.268Z,17.70
2017-09-05T21:43:01.892Z,19.00
2017-09-05T21:45:29.670Z,16.47
2017-09-05T21:47:57.336Z,15.57
2017-09-05T21:50:24.997Z,16.03
2017-09-05T21:52:52.601Z,16.93
2017-09-05T21:55:20.210Z,17.50
2017-09-05T21:57:47.919Z,16.67
2017-09-05T22:00:15.555Z,15.77
2017-09-05T22:02:43.180Z,14.03
2017-09-05T22:05:10.809Z,14.10
2017-09-05T22:07:38.428Z,17.77
2017-09-05T22:10:06.067Z,32.17
2017-09-05T22:12:34.504Z,31.30
2017-09-05T22:15:07.777Z,24.33
2017-09-05T22:17:35.410Z,30.90
2017-09-05T22:20:08.793Z,27.43
2017-09-05T22:22:42.068Z,28.50
2017-09-05T22:25:15.356Z,27.63
2017-09-05T22:30:45.740Z,25.07
2017-09-05T22:33:13.378Z,33.47
2017-09-05T22:35:40.992Z,35.50
2017-09-05T22:38:08.598Z,39.37
2017-09-05T22:40:36.209Z,35.47
2017-09-05T22:43:03.808Z,33.47
2017-09-05T22:45:31.416Z,36.47
2017-09-05T22:47:59.025Z,36.07
2017-09-05T22:50:26.862Z,40.17
2017-09-05T22:52:54.534Z,33.33
2017-09-05T22:55:22.151Z,29.67
2017-09-05T22:57:49.770Z,28.80
2017-09-05T23:00:18.141Z,26.00
2017-09-05T23:02:45.755Z,29.17
2017-09-05T23:05:13.369Z,47.63
2017-09-05T23:07:40.978Z,31.27
2017-09-05T23:10:08.607Z,25.90
2017-09-05T23:12:36.268Z,33.80
2017-09-05T23:15:03.845Z,30.70
2017-09-05T23:17:31.467Z,26.53
2017-09-05T23:19:59.060Z,27.40
2017-09-05T23:22:26.652Z,26.00
2017-09-05T23:24:54.261Z,28.60
2017-09-05T23:27:21.859Z,26.43
2017-09-05T23:29:49.466Z,36.23
2017-09-05T23:32:17.063Z,32.07
2017-09-05T23:34:44.686Z,30.37
2017-09-05T23:37:12.297Z,31.67
2017-09-05T23:39:39.924Z,36.37
2017-09-05T23:42:07.546Z,32.87
2017-09-05T23:44:35.514Z,38.83
2017-09-05T23:47:03.141Z,33.77
2017-09-05T23:49:30.771Z,29.90
2017-09-05T23:51:58.421Z,30.17
2017-09-05T23:54:26.868Z,36.33
2017-09-05T23:56:54.505Z,34.40
2017-09-05T23:59:22.145Z,31.40
